sensor_id;sensor_type;location;lat;lon;timestamp;temperature;humidity
20714;DHT22;10518;50.742;4.226;2023-02-25T00:01:18;5.30;99.90
20714;DHT22;10518;50.742;4.226;2023-02-25T00:03:44;5.30;99.90
20714;DHT22;10518;50.742;4.226;2023-02-25T00:06:12;5.50;99.90
20714;DHT22;10518;50.742;4.226;2023-02-25T00:08:43;5.60;99.90
20714;DHT22;10518;50.742;4.226;2023-02-25T00:11:10;5.50;99.90
20714;DHT22;10518;50.742;4.226;2023-02-25T00:13:38;5.50;99.90
20714;DHT22;10518;50.742;4.226;2023-02-25T00:16:05;5.50;99.90
20714;DHT22;10518;50.742;4.226;2023-02-25T00:18:31;5.60;99.90
20714;DHT22;10518;50.742;4.226;2023-02-25T00:20:57;5.60;99.90
20714;DHT22;10518;50.742;4.226;2023-02-25T00:23:23;5.40;99.90
20714;DHT22;10518;50.742;4.226;2023-02-25T00:25:50;5.60;99.90
20714;DHT22;10518;50.742;4.226;2023-02-25T00:28:21;5.40;99.90
20714;DHT22;10518;50.742;4.226;2023-02-25T00:30:47;5.50;99.90
20714;DHT22;10518;50.742;4.226;2023-02-25T00:33:13;5.50;99.90
20714;DHT22;10518;50.742;4.226;2023-02-25T00:35:39;5.50;99.90
20714;DHT22;10518;50.742;4.226;2023-02-25T00:38:06;5.40;99.90
20714;DHT22;10518;50.742;4.226;2023-02-25T00:40:32;5.40;99.90
20714;DHT22;10518;50.742;4.226;2023-02-25T00:42:58;5.30;99.90
20714;DHT22;10518;50.742;4.226;2023-02-25T00:45:24;5.20;99.90
20714;DHT22;10518;50.742;4.226;2023-02-25T00:47:49;5.20;99.90
20714;DHT22;10518;50.742;4.226;2023-02-25T00:50:15;5.10;99.90
20714;DHT22;10518;50.742;4.226;2023-02-25T00:52:41;5.10;99.90
20714;DHT22;10518;50.742;4.226;2023-02-25T00:55:07;5.10;99.90
20714;DHT22;10518;50.742;4.226;2023-02-25T00:57:32;5.10;99.90
20714;DHT22;10518;50.742;4.226;2023-02-25T00:59:58;5.10;99.90
20714;DHT22;10518;50.742;4.226;2023-02-25T01:02:23;5.10;99.90
20714;DHT22;10518;50.742;4.226;2023-02-25T01:04:49;5.10;99.90
20714;DHT22;10518;50.742;4.226;2023-02-25T01:07:15;5.10;99.90
20714;DHT22;10518;50.742;4.226;2023-02-25T01:09:41;5.10;99.90
20714;DHT22;10518;50.742;4.226;2023-02-25T01:12:06;5.20;99.90
20714;DHT22;10518;50.742;4.226;2023-02-25T01:14:32;5.30;99.90
20714;DHT22;10518;50.742;4.226;2023-02-25T01:16:58;5.20;99.90
20714;DHT22;10518;50.742;4.226;2023-02-25T01:19:27;5.20;99.90
20714;DHT22;10518;50.742;4.226;2023-02-25T01:21:56;5.20;99.90
20714;DHT22;10518;50.742;4.226;2023-02-25T01:24:27;5.30;99.90
20714;DHT22;10518;50.742;4.226;2023-02-25T01:26:55;5.30;99.90
20714;DHT22;10518;50.742;4.226;2023-02-25T01:29:24;5.30;99.90
20714;DHT22;10518;50.742;4.226;2023-02-25T01:31:55;5.40;99.90
20714;DHT22;10518;50.742;4.226;2023-02-25T01:34:21;5.40;99.90
20714;DHT22;10518;50.742;4.226;2023-02-25T01:36:47;5.50;99.90
20714;DHT22;10518;50.742;4.226;2023-02-25T01:39:15;5.50;99.90
20714;DHT22;10518;50.742;4.226;2023-02-25T01:41:41;5.40;99.90
20714;DHT22;10518;50.742;4.226;2023-02-25T01:46:36;5.60;99.90
20714;DHT22;10518;50.742;4.226;2023-02-25T01:49:07;5.60;99.90
20714;DHT22;10518;50.742;4.226;2023-02-25T01:51:35;5.50;99.90
20714;DHT22;10518;50.742;4.226;2023-02-25T01:54:02;5.50;99.90
20714;DHT22;10518;50.742;4.226;2023-02-25T01:56:29;5.50;99.90
20714;DHT22;10518;50.742;4.226;2023-02-25T01:58:56;5.30;99.90
20714;DHT22;10518;50.742;4.226;2023-02-25T02:01:23;5.30;99.90
20714;DHT22;10518;50.742;4.226;2023-02-25T02:03:51;5.20;99.90
20714;DHT22;10518;50.742;4.226;2023-02-25T02:06:23;5.30;99.90
20714;DHT22;10518;50.742;4.226;2023-02-25T02:08:52;5.30;99.90
20714;DHT22;10518;50.742;4.226;2023-02-25T02:11:18;5.30;99.90
20714;DHT22;10518;50.742;4.226;2023-02-25T02:13:47;5.10;99.90
20714;DHT22;10518;50.742;4.226;2023-02-25T02:18:56;4.80;99.90
20714;DHT22;10518;50.742;4.226;2023-02-25T02:24:38;4.70;99.90
20714;DHT22;10518;50.742;4.226;2023-02-25T02:27:13;4.70;99.90
20714;DHT22;10518;50.742;4.226;2023-02-25T02:30:00;4.60;99.90
20714;DHT22;10518;50.742;4.226;2023-02-25T02:32:56;4.60;99.90
20714;DHT22;10518;50.742;4.226;2023-02-25T02:35:35;4.50;99.90
20714;DHT22;10518;50.742;4.226;2023-02-25T02:38:13;4.60;99.90
20714;DHT22;10518;50.742;4.226;2023-02-25T02:41:07;4.70;99.90
20714;DHT22;10518;50.742;4.226;2023-02-25T02:44:12;4.70;99.90
20714;DHT22;10518;50.742;4.226;2023-02-25T02:46:46;4.80;99.90
20714;DHT22;10518;50.742;4.226;2023-02-25T02:51:49;5.20;99.90
20714;DHT22;10518;50.742;4.226;2023-02-25T02:54:17;5.40;99.90
20714;DHT22;10518;50.742;4.226;2023-02-25T02:56:44;5.40;99.90
20714;DHT22;10518;50.742;4.226;2023-02-25T02:59:17;5.50;99.90
20714;DHT22;10518;50.742;4.226;2023-02-25T03:01:49;5.60;99.90
20714;DHT22;10518;50.742;4.226;2023-02-25T03:04:22;5.60;99.90
20714;DHT22;10518;50.742;4.226;2023-02-25T03:06:52;5.50;99.90
20714;DHT22;10518;50.742;4.226;2023-02-25T03:09:26;5.40;99.90
20714;DHT22;10518;50.742;4.226;2023-02-25T03:11:54;5.40;99.90
20714;DHT22;10518;50.742;4.226;2023-02-25T03:14:20;5.50;99.90
20714;DHT22;10518;50.742;4.226;2023-02-25T03:19:35;5.60;99.90
20714;DHT22;10518;50.742;4.226;2023-02-25T03:22:09;5.50;99.90
20714;DHT22;10518;50.742;4.226;2023-02-25T03:24:49;5.40;99.90
20714;DHT22;10518;50.742;4.226;2023-02-25T03:27:28;5.20;99.90
20714;DHT22;10518;50.742;4.226;2023-02-25T03:30:11;5.30;99.90
20714;DHT22;10518;50.742;4.226;2023-02-25T03:32:46;5.30;99.90
20714;DHT22;10518;50.742;4.226;2023-02-25T03:35:14;5.40;99.90
20714;DHT22;10518;50.742;4.226;2023-02-25T03:37:43;5.40;99.90
20714;DHT22;10518;50.742;4.226;2023-02-25T03:40:12;5.40;99.90
20714;DHT22;10518;50.742;4.226;2023-02-25T03:42:53;5.50;99.90
20714;DHT22;10518;50.742;4.226;2023-02-25T03:45:21;5.60;99.90
20714;DHT22;10518;50.742;4.226;2023-02-25T03:47:47;5.50;99.90
20714;DHT22;10518;50.742;4.226;2023-02-25T03:50:19;5.50;99.90
20714;DHT22;10518;50.742;4.226;2023-02-25T03:52:45;5.50;99.90
20714;DHT22;10518;50.742;4.226;2023-02-25T03:55:11;5.50;99.90
20714;DHT22;10518;50.742;4.226;2023-02-25T03:57:41;5.50;99.90
20714;DHT22;10518;50.742;4.226;2023-02-25T04:00:12;5.50;99.90
20714;DHT22;10518;50.742;4.226;2023-02-25T04:02:44;5.70;99.90
20714;DHT22;10518;50.742;4.226;2023-02-25T04:05:10;5.80;99.90
20714;DHT22;10518;50.742;4.226;2023-02-25T04:07:37;5.70;99.90
20714;DHT22;10518;50.742;4.226;2023-02-25T04:10:04;5.60;99.90
20714;DHT22;10518;50.742;4.226;2023-02-25T04:12:30;5.40;99.90
20714;DHT22;10518;50.742;4.226;2023-02-25T04:14:55;5.40;99.90
20714;DHT22;10518;50.742;4.226;2023-02-25T04:17:21;5.40;99.90
20714;DHT22;10518;50.742;4.226;2023-02-25T04:19:46;5.30;99.90
20714;DHT22;10518;50.742;4.226;2023-02-25T04:22:12;5.30;99.90
20714;DHT22;10518;50.742;4.226;2023-02-25T04:24:37;5.30;99.90
20714;DHT22;10518;50.742;4.226;2023-02-25T04:27:03;5.40;99.90
20714;DHT22;10518;50.742;4.226;2023-02-25T04:29:29;5.50;99.90
20714;DHT22;10518;50.742;4.226;2023-02-25T04:31:54;5.50;99.90
20714;DHT22;10518;50.742;4.226;2023-02-25T04:34:20;5.50;99.90
20714;DHT22;10518;50.742;4.226;2023-02-25T04:36:46;5.50;99.90
20714;DHT22;10518;50.742;4.226;2023-02-25T04:39:13;5.40;99.90
20714;DHT22;10518;50.742;4.226;2023-02-25T04:41:42;5.50;99.90
20714;DHT22;10518;50.742;4.226;2023-02-25T04:44:08;5.60;99.90
20714;DHT22;10518;50.742;4.226;2023-02-25T04:46:37;5.70;99.90
20714;DHT22;10518;50.742;4.226;2023-02-25T04:49:04;5.80;99.90
20714;DHT22;10518;50.742;4.226;2023-02-25T04:51:30;5.80;99.90
20714;DHT22;10518;50.742;4.226;2023-02-25T04:53:55;5.80;99.90
20714;DHT22;10518;50.742;4.226;2023-02-25T04:56:21;5.80;99.90
20714;DHT22;10518;50.742;4.226;2023-02-25T04:58:46;5.70;99.90
20714;DHT22;10518;50.742;4.226;2023-02-25T05:01:13;5.80;99.90
20714;DHT22;10518;50.742;4.226;2023-02-25T05:03:39;5.80;99.90
20714;DHT22;10518;50.742;4.226;2023-02-25T05:06:05;6.00;99.90
20714;DHT22;10518;50.742;4.226;2023-02-25T05:08:32;6.10;99.90
20714;DHT22;10518;50.742;4.226;2023-02-25T05:10:58;6.00;99.90
20714;DHT22;10518;50.742;4.226;2023-02-25T05:13:24;6.10;99.90
20714;DHT22;10518;50.742;4.226;2023-02-25T05:15:49;5.80;99.90
20714;DHT22;10518;50.742;4.226;2023-02-25T05:18:16;5.70;99.90
20714;DHT22;10518;50.742;4.226;2023-02-25T05:20:46;5.70;99.90
20714;DHT22;10518;50.742;4.226;2023-02-25T05:23:12;5.40;99.90
20714;DHT22;10518;50.742;4.226;2023-02-25T05:25:38;5.40;99.90
20714;DHT22;10518;50.742;4.226;2023-02-25T05:28:08;5.60;99.90
20714;DHT22;10518;50.742;4.226;2023-02-25T05:30:35;5.80;99.90
20714;DHT22;10518;50.742;4.226;2023-02-25T05:33:01;5.40;99.90
20714;DHT22;10518;50.742;4.226;2023-02-25T05:35:26;5.40;99.90
20714;DHT22;10518;50.742;4.226;2023-02-25T05:37:52;5.50;99.90
20714;DHT22;10518;50.742;4.226;2023-02-25T05:40:19;5.40;99.90
20714;DHT22;10518;50.742;4.226;2023-02-25T05:42:44;5.40;99.90
20714;DHT22;10518;50.742;4.226;2023-02-25T05:45:14;5.50;99.90
20714;DHT22;10518;50.742;4.226;2023-02-25T05:47:39;5.40;99.90
20714;DHT22;10518;50.742;4.226;2023-02-25T05:50:05;5.30;99.90
20714;DHT22;10518;50.742;4.226;2023-02-25T05:52:31;5.20;99.90
20714;DHT22;10518;50.742;4.226;2023-02-25T05:54:56;5.20;99.90
20714;DHT22;10518;50.742;4.226;2023-02-25T05:57:22;5.10;99.90
20714;DHT22;10518;50.742;4.226;2023-02-25T05:59:48;5.00;99.90
20714;DHT22;10518;50.742;4.226;2023-02-25T06:02:14;5.10;99.90
20714;DHT22;10518;50.742;4.226;2023-02-25T06:04:40;5.10;99.90
20714;DHT22;10518;50.742;4.226;2023-02-25T06:07:05;5.40;99.90
20714;DHT22;10518;50.742;4.226;2023-02-25T06:09:31;5.40;99.90
20714;DHT22;10518;50.742;4.226;2023-02-25T06:11:59;5.40;99.90
20714;DHT22;10518;50.742;4.226;2023-02-25T06:14:25;5.40;99.90
20714;DHT22;10518;50.742;4.226;2023-02-25T06:16:51;5.40;99.90
20714;DHT22;10518;50.742;4.226;2023-02-25T06:19:21;5.50;99.90
20714;DHT22;10518;50.742;4.226;2023-02-25T06:21:47;5.50;99.90
20714;DHT22;10518;50.742;4.226;2023-02-25T06:24:13;5.40;99.90
20714;DHT22;10518;50.742;4.226;2023-02-25T06:26:39;5.30;99.90
20714;DHT22;10518;50.742;4.226;2023-02-25T06:29:08;5.30;99.90
20714;DHT22;10518;50.742;4.226;2023-02-25T06:31:34;5.20;99.90
20714;DHT22;10518;50.742;4.226;2023-02-25T06:33:59;5.10;99.90
20714;DHT22;10518;50.742;4.226;2023-02-25T06:36:25;5.00;99.90
20714;DHT22;10518;50.742;4.226;2023-02-25T06:38:50;4.90;99.90
20714;DHT22;10518;50.742;4.226;2023-02-25T06:41:19;5.00;99.90
20714;DHT22;10518;50.742;4.226;2023-02-25T06:43:45;5.00;99.90
20714;DHT22;10518;50.742;4.226;2023-02-25T06:46:13;5.10;99.90
20714;DHT22;10518;50.742;4.226;2023-02-25T06:48:39;5.10;99.90
20714;DHT22;10518;50.742;4.226;2023-02-25T06:51:04;5.10;99.90
20714;DHT22;10518;50.742;4.226;2023-02-25T06:53:35;5.20;99.90
20714;DHT22;10518;50.742;4.226;2023-02-25T06:56:00;5.30;99.90
20714;DHT22;10518;50.742;4.226;2023-02-25T06:58:26;5.40;99.90
20714;DHT22;10518;50.742;4.226;2023-02-25T07:00:51;5.50;99.90
20714;DHT22;10518;50.742;4.226;2023-02-25T07:03:17;5.40;99.90
20714;DHT22;10518;50.742;4.226;2023-02-25T07:05:43;5.50;99.90
20714;DHT22;10518;50.742;4.226;2023-02-25T07:08:08;5.50;99.90
20714;DHT22;10518;50.742;4.226;2023-02-25T07:10:34;5.40;99.90
20714;DHT22;10518;50.742;4.226;2023-02-25T07:13:00;5.50;99.90
20714;DHT22;10518;50.742;4.226;2023-02-25T07:15:25;5.50;99.90
20714;DHT22;10518;50.742;4.226;2023-02-25T07:17:51;5.50;99.90
20714;DHT22;10518;50.742;4.226;2023-02-25T07:20:17;5.60;99.90
20714;DHT22;10518;50.742;4.226;2023-02-25T07:22:42;5.70;99.90
20714;DHT22;10518;50.742;4.226;2023-02-25T07:25:09;5.70;99.90
20714;DHT22;10518;50.742;4.226;2023-02-25T07:27:41;5.70;99.90
20714;DHT22;10518;50.742;4.226;2023-02-25T07:30:08;5.80;99.90
20714;DHT22;10518;50.742;4.226;2023-02-25T07:32:34;5.90;99.90
20714;DHT22;10518;50.742;4.226;2023-02-25T07:35:00;6.00;99.90
20714;DHT22;10518;50.742;4.226;2023-02-25T07:37:26;6.20;99.90
20714;DHT22;10518;50.742;4.226;2023-02-25T07:39:51;6.40;99.90
20714;DHT22;10518;50.742;4.226;2023-02-25T07:42:17;6.50;99.90
20714;DHT22;10518;50.742;4.226;2023-02-25T07:44:43;6.60;99.90
20714;DHT22;10518;50.742;4.226;2023-02-25T07:47:08;6.70;99.90
20714;DHT22;10518;50.742;4.226;2023-02-25T07:49:34;6.70;99.90
20714;DHT22;10518;50.742;4.226;2023-02-25T07:51:59;6.70;99.90
20714;DHT22;10518;50.742;4.226;2023-02-25T07:54:25;6.70;99.90
20714;DHT22;10518;50.742;4.226;2023-02-25T07:56:51;6.70;99.90
20714;DHT22;10518;50.742;4.226;2023-02-25T07:59:17;6.80;99.90
20714;DHT22;10518;50.742;4.226;2023-02-25T08:01:43;7.20;99.90
20714;DHT22;10518;50.742;4.226;2023-02-25T08:04:10;7.20;99.90
20714;DHT22;10518;50.742;4.226;2023-02-25T08:06:38;7.20;99.90
20714;DHT22;10518;50.742;4.226;2023-02-25T08:09:05;7.20;99.90
20714;DHT22;10518;50.742;4.226;2023-02-25T08:11:31;7.00;99.90
20714;DHT22;10518;50.742;4.226;2023-02-25T08:13:58;7.00;99.90
20714;DHT22;10518;50.742;4.226;2023-02-25T08:16:24;7.10;99.90
20714;DHT22;10518;50.742;4.226;2023-02-25T08:18:50;7.10;99.90
20714;DHT22;10518;50.742;4.226;2023-02-25T08:21:18;7.30;99.90
20714;DHT22;10518;50.742;4.226;2023-02-25T08:23:46;7.10;99.90
20714;DHT22;10518;50.742;4.226;2023-02-25T08:26:13;7.00;99.90
20714;DHT22;10518;50.742;4.226;2023-02-25T08:28:40;6.90;99.90
20714;DHT22;10518;50.742;4.226;2023-02-25T08:31:07;7.10;99.90
20714;DHT22;10518;50.742;4.226;2023-02-25T08:33:32;7.00;99.90
20714;DHT22;10518;50.742;4.226;2023-02-25T08:36:06;7.00;99.90
20714;DHT22;10518;50.742;4.226;2023-02-25T08:38:34;6.60;99.90
20714;DHT22;10518;50.742;4.226;2023-02-25T08:41:00;6.30;99.90
20714;DHT22;10518;50.742;4.226;2023-02-25T08:43:26;6.60;99.90
20714;DHT22;10518;50.742;4.226;2023-02-25T08:45:51;6.80;99.90
20714;DHT22;10518;50.742;4.226;2023-02-25T08:48:17;7.20;99.90
20714;DHT22;10518;50.742;4.226;2023-02-25T08:50:43;7.50;99.90
20714;DHT22;10518;50.742;4.226;2023-02-25T08:53:08;7.40;99.90
20714;DHT22;10518;50.742;4.226;2023-02-25T08:55:34;6.90;99.90
20714;DHT22;10518;50.742;4.226;2023-02-25T08:58:00;6.80;99.90
20714;DHT22;10518;50.742;4.226;2023-02-25T09:00:26;6.60;99.90
20714;DHT22;10518;50.742;4.226;2023-02-25T09:02:53;6.80;99.90
20714;DHT22;10518;50.742;4.226;2023-02-25T09:05:18;6.50;99.90
20714;DHT22;10518;50.742;4.226;2023-02-25T09:07:44;6.70;99.90
20714;DHT22;10518;50.742;4.226;2023-02-25T09:10:10;7.00;99.90
20714;DHT22;10518;50.742;4.226;2023-02-25T09:12:37;7.00;99.90
20714;DHT22;10518;50.742;4.226;2023-02-25T09:15:03;7.10;99.90
20714;DHT22;10518;50.742;4.226;2023-02-25T09:17:29;6.90;99.90
20714;DHT22;10518;50.742;4.226;2023-02-25T09:19:55;7.00;99.90
20714;DHT22;10518;50.742;4.226;2023-02-25T09:22:22;7.00;99.90
20714;DHT22;10518;50.742;4.226;2023-02-25T09:24:48;7.10;99.90
20714;DHT22;10518;50.742;4.226;2023-02-25T09:27:13;7.00;99.90
20714;DHT22;10518;50.742;4.226;2023-02-25T09:29:39;7.30;99.90
20714;DHT22;10518;50.742;4.226;2023-02-25T09:32:06;7.20;99.90
20714;DHT22;10518;50.742;4.226;2023-02-25T09:34:32;7.40;99.90
20714;DHT22;10518;50.742;4.226;2023-02-25T09:37:03;7.50;99.90
20714;DHT22;10518;50.742;4.226;2023-02-25T09:39:29;7.40;99.90
20714;DHT22;10518;50.742;4.226;2023-02-25T09:44:29;6.90;99.90
20714;DHT22;10518;50.742;4.226;2023-02-25T09:47:04;6.50;99.90
20714;DHT22;10518;50.742;4.226;2023-02-25T09:49:41;6.60;99.90
20714;DHT22;10518;50.742;4.226;2023-02-25T09:52:43;6.40;99.90
20714;DHT22;10518;50.742;4.226;2023-02-25T09:55:30;6.40;99.90
20714;DHT22;10518;50.742;4.226;2023-02-25T10:00:44;6.00;99.90
20714;DHT22;10518;50.742;4.226;2023-02-25T10:05:45;5.90;99.90
20714;DHT22;10518;50.742;4.226;2023-02-25T10:08:33;6.10;99.90
20714;DHT22;10518;50.742;4.226;2023-02-25T10:11:09;6.20;99.90
20714;DHT22;10518;50.742;4.226;2023-02-25T10:13:45;6.30;99.90
20714;DHT22;10518;50.742;4.226;2023-02-25T10:19:45;6.40;99.90
20714;DHT22;10518;50.742;4.226;2023-02-25T10:24:49;6.60;99.90
20714;DHT22;10518;50.742;4.226;2023-02-25T10:27:27;6.40;99.90
20714;DHT22;10518;50.742;4.226;2023-02-25T10:29:58;6.40;99.90
20714;DHT22;10518;50.742;4.226;2023-02-25T10:32:33;6.40;99.90
20714;DHT22;10518;50.742;4.226;2023-02-25T10:35:04;6.50;99.90
20714;DHT22;10518;50.742;4.226;2023-02-25T10:37:36;6.70;99.90
20714;DHT22;10518;50.742;4.226;2023-02-25T10:40:05;7.10;99.90
20714;DHT22;10518;50.742;4.226;2023-02-25T10:42:36;7.30;99.90
20714;DHT22;10518;50.742;4.226;2023-02-25T10:45:08;7.50;99.90
20714;DHT22;10518;50.742;4.226;2023-02-25T10:47:39;7.70;99.90
20714;DHT22;10518;50.742;4.226;2023-02-25T10:50:11;8.00;99.90
20714;DHT22;10518;50.742;4.226;2023-02-25T10:52:55;8.10;99.90
20714;DHT22;10518;50.742;4.226;2023-02-25T10:55:39;8.00;99.90
20714;DHT22;10518;50.742;4.226;2023-02-25T10:58:37;8.00;99.90
20714;DHT22;10518;50.742;4.226;2023-02-25T11:01:20;8.00;99.90
20714;DHT22;10518;50.742;4.226;2023-02-25T11:03:58;7.70;99.90
20714;DHT22;10518;50.742;4.226;2023-02-25T11:06:27;7.90;99.90
20714;DHT22;10518;50.742;4.226;2023-02-25T11:08:55;8.10;99.90
20714;DHT22;10518;50.742;4.226;2023-02-25T11:11:35;8.10;99.90
20714;DHT22;10518;50.742;4.226;2023-02-25T11:14:13;6.90;99.90
20714;DHT22;10518;50.742;4.226;2023-02-25T11:16:40;6.40;99.90
20714;DHT22;10518;50.742;4.226;2023-02-25T11:19:17;5.90;99.90
20714;DHT22;10518;50.742;4.226;2023-02-25T11:21:45;6.00;99.90
20714;DHT22;10518;50.742;4.226;2023-02-25T11:24:14;6.20;99.90
20714;DHT22;10518;50.742;4.226;2023-02-25T11:26:44;6.20;99.90
20714;DHT22;10518;50.742;4.226;2023-02-25T11:29:41;6.20;99.90
20714;DHT22;10518;50.742;4.226;2023-02-25T11:32:12;6.20;99.90
20714;DHT22;10518;50.742;4.226;2023-02-25T11:34:55;6.40;99.90
20714;DHT22;10518;50.742;4.226;2023-02-25T11:37:35;6.20;99.90
20714;DHT22;10518;50.742;4.226;2023-02-25T11:40:09;6.20;99.90
20714;DHT22;10518;50.742;4.226;2023-02-25T11:42:43;6.40;99.90
20714;DHT22;10518;50.742;4.226;2023-02-25T11:45:23;6.70;99.90
20714;DHT22;10518;50.742;4.226;2023-02-25T11:47:49;6.90;99.90
20714;DHT22;10518;50.742;4.226;2023-02-25T12:10:25;8.00;99.90
20714;DHT22;10518;50.742;4.226;2023-02-25T12:30:35;8.50;99.90
20714;DHT22;10518;50.742;4.226;2023-02-25T12:33:13;8.10;99.90
20714;DHT22;10518;50.742;4.226;2023-02-25T12:41:53;6.60;99.90
20714;DHT22;10518;50.742;4.226;2023-02-25T12:44:45;6.40;99.90
20714;DHT22;10518;50.742;4.226;2023-02-25T12:47:23;6.30;99.90
20714;DHT22;10518;50.742;4.226;2023-02-25T12:53:05;6.40;99.90
20714;DHT22;10518;50.742;4.226;2023-02-25T13:01:37;6.50;99.90
20714;DHT22;10518;50.742;4.226;2023-02-25T13:04:33;6.50;99.90
20714;DHT22;10518;50.742;4.226;2023-02-25T13:12:31;7.10;99.90
20714;DHT22;10518;50.742;4.226;2023-02-25T13:32:15;7.50;99.90
20714;DHT22;10518;50.742;4.226;2023-02-25T13:42:44;8.50;99.90
20714;DHT22;10518;50.742;4.226;2023-02-25T13:54:17;8.30;99.90
20714;DHT22;10518;50.742;4.226;2023-02-25T13:56:54;8.20;99.90
20714;DHT22;10518;50.742;4.226;2023-02-25T13:59:41;8.20;99.90
20714;DHT22;10518;50.742;4.226;2023-02-25T14:05:33;8.00;99.90
20714;DHT22;10518;50.742;4.226;2023-02-25T14:08:31;8.20;99.90
20714;DHT22;10518;50.742;4.226;2023-02-25T14:16:46;7.90;99.90
20714;DHT22;10518;50.742;4.226;2023-02-25T14:22:08;7.90;99.90
20714;DHT22;10518;50.742;4.226;2023-02-25T14:30:17;7.80;99.90
20714;DHT22;10518;50.742;4.226;2023-02-25T14:36:27;7.30;99.90
20714;DHT22;10518;50.742;4.226;2023-02-25T14:43:37;7.30;99.90
20714;DHT22;10518;50.742;4.226;2023-02-25T15:20:33;7.40;99.90
20714;DHT22;10518;50.742;4.226;2023-02-25T15:33:39;7.20;99.90
20714;DHT22;10518;50.742;4.226;2023-02-25T15:36:38;7.10;99.90
20714;DHT22;10518;50.742;4.226;2023-02-25T15:39:07;7.30;99.90
20714;DHT22;10518;50.742;4.226;2023-02-25T15:41:36;7.10;99.90
20714;DHT22;10518;50.742;4.226;2023-02-25T15:51:46;6.70;99.90
20714;DHT22;10518;50.742;4.226;2023-02-25T15:56:52;6.70;99.90
20714;DHT22;10518;50.742;4.226;2023-02-25T15:59:48;6.90;99.90
20714;DHT22;10518;50.742;4.226;2023-02-25T16:02:38;6.70;99.90
20714;DHT22;10518;50.742;4.226;2023-02-25T16:10:23;6.90;99.90
20714;DHT22;10518;50.742;4.226;2023-02-25T16:12:52;6.90;99.90
20714;DHT22;10518;50.742;4.226;2023-02-25T16:15:39;6.90;99.90
20714;DHT22;10518;50.742;4.226;2023-02-25T16:18:30;7.00;99.90
20714;DHT22;10518;50.742;4.226;2023-02-25T16:21:22;7.10;99.90
20714;DHT22;10518;50.742;4.226;2023-02-25T16:23:48;7.20;99.90
20714;DHT22;10518;50.742;4.226;2023-02-25T16:28:56;7.50;99.90
20714;DHT22;10518;50.742;4.226;2023-02-25T16:34:35;7.50;99.90
20714;DHT22;10518;50.742;4.226;2023-02-25T16:39:59;7.20;99.90
20714;DHT22;10518;50.742;4.226;2023-02-25T16:42:31;7.20;99.90
20714;DHT22;10518;50.742;4.226;2023-02-25T16:45:02;6.80;99.90
20714;DHT22;10518;50.742;4.226;2023-02-25T16:47:31;6.70;99.90
20714;DHT22;10518;50.742;4.226;2023-02-25T16:50:00;6.80;99.90
20714;DHT22;10518;50.742;4.226;2023-02-25T16:52:33;6.60;99.90
20714;DHT22;10518;50.742;4.226;2023-02-25T16:55:05;6.60;99.90
20714;DHT22;10518;50.742;4.226;2023-02-25T16:57:33;6.50;99.90
20714;DHT22;10518;50.742;4.226;2023-02-25T17:00:19;6.60;99.90
20714;DHT22;10518;50.742;4.226;2023-02-25T17:02:48;6.50;99.90
20714;DHT22;10518;50.742;4.226;2023-02-25T17:05:29;6.40;99.90
20714;DHT22;10518;50.742;4.226;2023-02-25T17:07:59;6.30;99.90
20714;DHT22;10518;50.742;4.226;2023-02-25T17:10:46;6.30;99.90
20714;DHT22;10518;50.742;4.226;2023-02-25T17:13:18;6.30;99.90
20714;DHT22;10518;50.742;4.226;2023-02-25T17:15:47;6.30;99.90
20714;DHT22;10518;50.742;4.226;2023-02-25T17:21:05;6.00;99.90
20714;DHT22;10518;50.742;4.226;2023-02-25T17:23:37;6.00;99.90
20714;DHT22;10518;50.742;4.226;2023-02-25T17:26:04;6.00;99.90
20714;DHT22;10518;50.742;4.226;2023-02-25T17:28:31;6.30;99.90
20714;DHT22;10518;50.742;4.226;2023-02-25T17:31:25;6.30;99.90
20714;DHT22;10518;50.742;4.226;2023-02-25T17:33:53;6.20;99.90
20714;DHT22;10518;50.742;4.226;2023-02-25T17:36:25;6.00;99.90
20714;DHT22;10518;50.742;4.226;2023-02-25T17:38:55;5.90;99.90
20714;DHT22;10518;50.742;4.226;2023-02-25T17:41:22;5.80;99.90
20714;DHT22;10518;50.742;4.226;2023-02-25T17:43:49;5.90;99.90
20714;DHT22;10518;50.742;4.226;2023-02-25T17:48:51;5.70;99.90
20714;DHT22;10518;50.742;4.226;2023-02-25T17:51:19;6.00;99.90
20714;DHT22;10518;50.742;4.226;2023-02-25T17:53:57;5.70;99.90
20714;DHT22;10518;50.742;4.226;2023-02-25T17:56:28;5.60;99.90
20714;DHT22;10518;50.742;4.226;2023-02-25T18:01:59;5.60;99.90
20714;DHT22;10518;50.742;4.226;2023-02-25T18:04:32;5.50;99.90
20714;DHT22;10518;50.742;4.226;2023-02-25T18:09:46;5.10;99.90
20714;DHT22;10518;50.742;4.226;2023-02-25T18:12:33;5.20;99.90
20714;DHT22;10518;50.742;4.226;2023-02-25T18:15:13;5.20;99.90
20714;DHT22;10518;50.742;4.226;2023-02-25T18:17:40;5.00;99.90
20714;DHT22;10518;50.742;4.226;2023-02-25T18:25:34;5.30;99.90
20714;DHT22;10518;50.742;4.226;2023-02-25T18:28:01;5.30;99.90
20714;DHT22;10518;50.742;4.226;2023-02-25T18:30:29;5.20;99.90
20714;DHT22;10518;50.742;4.226;2023-02-25T18:32:55;5.10;99.90
20714;DHT22;10518;50.742;4.226;2023-02-25T18:35:25;5.00;99.90
20714;DHT22;10518;50.742;4.226;2023-02-25T18:37:52;5.20;99.90
20714;DHT22;10518;50.742;4.226;2023-02-25T18:40:27;5.30;99.90
20714;DHT22;10518;50.742;4.226;2023-02-25T18:42:54;5.20;99.90
20714;DHT22;10518;50.742;4.226;2023-02-25T18:45:22;5.00;99.90
20714;DHT22;10518;50.742;4.226;2023-02-25T18:47:49;5.00;99.90
20714;DHT22;10518;50.742;4.226;2023-02-25T18:50:15;4.90;99.90
20714;DHT22;10518;50.742;4.226;2023-02-25T18:52:41;4.90;99.90
20714;DHT22;10518;50.742;4.226;2023-02-25T18:55:13;5.00;99.90
20714;DHT22;10518;50.742;4.226;2023-02-25T18:57:39;5.00;99.90
20714;DHT22;10518;50.742;4.226;2023-02-25T19:00:06;4.90;99.90
20714;DHT22;10518;50.742;4.226;2023-02-25T19:02:34;4.90;99.90
20714;DHT22;10518;50.742;4.226;2023-02-25T19:05:01;4.80;99.90
20714;DHT22;10518;50.742;4.226;2023-02-25T19:07:30;4.70;99.90
20714;DHT22;10518;50.742;4.226;2023-02-25T19:09:55;4.50;99.90
20714;DHT22;10518;50.742;4.226;2023-02-25T19:12:22;4.60;99.90
20714;DHT22;10518;50.742;4.226;2023-02-25T19:14:59;4.60;99.90
20714;DHT22;10518;50.742;4.226;2023-02-25T19:17:27;4.60;99.90
20714;DHT22;10518;50.742;4.226;2023-02-25T19:19:53;4.50;99.90
20714;DHT22;10518;50.742;4.226;2023-02-25T19:22:19;4.70;99.90
20714;DHT22;10518;50.742;4.226;2023-02-25T19:24:46;4.50;99.90
20714;DHT22;10518;50.742;4.226;2023-02-25T19:27:21;4.60;99.90
20714;DHT22;10518;50.742;4.226;2023-02-25T19:29:48;4.60;99.90
20714;DHT22;10518;50.742;4.226;2023-02-25T19:32:15;4.40;99.90
20714;DHT22;10518;50.742;4.226;2023-02-25T19:34:42;4.50;99.90
20714;DHT22;10518;50.742;4.226;2023-02-25T19:37:08;4.60;99.90
20714;DHT22;10518;50.742;4.226;2023-02-25T19:39:34;4.40;99.90
20714;DHT22;10518;50.742;4.226;2023-02-25T19:41:59;4.30;99.90
20714;DHT22;10518;50.742;4.226;2023-02-25T19:44:25;4.40;99.90
20714;DHT22;10518;50.742;4.226;2023-02-25T19:46:51;4.40;99.90
20714;DHT22;10518;50.742;4.226;2023-02-25T19:49:16;4.40;99.90
20714;DHT22;10518;50.742;4.226;2023-02-25T19:51:42;4.30;99.90
20714;DHT22;10518;50.742;4.226;2023-02-25T19:54:08;4.50;99.90